This is the latest recevied weather packets stored in our database for station/object N3FAA. If no packets are shown the sender has not sent any weather packets the latest 10 day(s).
| Time | Temp. | Humidity | Pressure | Rain* | Wind** | Luminosity | Snow |
|---|---|---|---|---|---|---|---|
| 1777683809 | 27.22° C | 24% | 1008.9 hPa | 0 mm | - | 182 W/m² | - |
| 1777683506 | 27.22° C | 23% | 1008.7 hPa | 0 mm | - | 198 W/m² | - |
| 1777683204 | 27.22° C | 23% | 1008.7 hPa | 0 mm | - | 212 W/m² | - |
| 1777682901 | 27.78° C | 22% | 1008.8 hPa | 0 mm | - | 259 W/m² | - |
| 1777682597 | 27.78° C | 21% | 1008.8 hPa | 0 mm | - | 281 W/m² | - |
| 1777682295 | 27.78° C | 23% | 1008.6 hPa | 0 mm | - | 303 W/m² | - |
| 1777681992 | 27.78° C | 23% | 1008.7 hPa | 0 mm | - | 284 W/m² | - |
| 1777681688 | 28.33° C | 23% | 1008.8 hPa | 0 mm | - | 337 W/m² | - |
| 1777681385 | 28.89° C | 23% | 1008.5 hPa | 0 mm | - | 355 W/m² | - |
| 1777681083 | 28.89° C | 22% | 1008.7 hPa | 0 mm | - | 370 W/m² | - |
| 1777680780 | 28.89° C | 22% | 1008.5 hPa | 0 mm | - | 382 W/m² | - |
| 1777680477 | 28.89° C | 22% | 1008.6 hPa | 0 mm | - | 406 W/m² | - |
| 1777680175 | 29.44° C | 21% | 1008.5 hPa | 0 mm | - | 422 W/m² | - |
| 1777679870 | 29.44° C | 21% | 1008.5 hPa | 0 mm | - | 418 W/m² | - |
| 1777679567 | 28.89° C | 21% | 1008.8 hPa | 0 mm | - | 394 W/m² | - |
| 1777679263 | 29.44° C | 21% | 1008.6 hPa | 0 mm | - | 445 W/m² | - |
| 1777678960 | 29.44° C | 20% | 1008.7 hPa | 0 mm | - | 497 W/m² | - |
| 1777678658 | 29.44° C | 21% | 1008.6 hPa | 0 mm | - | 512 W/m² | - |
| 1777678355 | 30° C | 20% | 1008.6 hPa | 0 mm | - | 526 W/m² | - |
| 1777678050 | 30° C | 20% | 1008.5 hPa | 0 mm | - | 557 W/m² | - |
| 1777677748 | 30° C | 21% | 1008.6 hPa | 0 mm | - | 584 W/m² | - |
| 1777677445 | 30.56° C | 20% | 1008.6 hPa | 0 mm | - | 603 W/m² | - |
| 1777677143 | 30° C | 20% | 1008.6 hPa | 0 mm | - | 617 W/m² | - |
| 1777676841 | 30.56° C | 20% | 1008.7 hPa | 0 mm | - | 635 W/m² | - |
| 1777676540 | 30° C | 20% | 1008.9 hPa | 0 mm | - | 636 W/m² | - |
* Rain latest hour (hover to see other rain measurements)
** Current wind speed in m/s (hover to see current wind gust speed)